Terminal Aerodrome Forecast
Issued by NWS Wichita, KS

Home | Current Version | Previous Version | Text Only | Print | Product List | Glossary On
Versions: 1 2 3 4 5 6 7 8 9 10 11 12 13 14 15 16 17 18
627
FTUS43 KICT 272042 AAB
TAFICT
TAF AMD
KICT 272042Z 2721/2818 15012KT P6SM VCSH SCT070 OVC100
     FM280200 13010KT P6SM -SHRA BKN045
     FM281000 12006KT P6SM BKN008
     FM281500 28006KT P6SM BKN035
     FM281700 28006KT P6SM SCT140=

USA.gov is the U.S. government's official web portal to all federal, state and local government web resources and services.